createdAt,value
2019-01-16T00:00:44.783Z,16.80
2019-01-16T00:03:23.745Z,16.75
2019-01-16T00:06:13.741Z,15.45
2019-01-16T00:08:46.952Z,15.98
2019-01-16T00:11:31.954Z,16.05
2019-01-16T00:14:05.313Z,15.88
2019-01-16T00:16:50.453Z,15.68
2019-01-16T00:19:38.641Z,15.23
2019-01-16T00:22:11.854Z,14.63
2019-01-16T00:24:56.841Z,15.80
2019-01-16T00:27:32.629Z,14.38
2019-01-16T00:30:31.437Z,14.50
2019-01-16T00:33:10.805Z,13.95
2019-01-16T00:35:44.029Z,14.50
2019-01-16T00:38:20.099Z,15.63
2019-01-16T00:41:09.745Z,15.63
2019-01-16T00:43:45.755Z,15.35
2019-01-16T00:46:19.003Z,14.98
2019-01-16T00:48:52.171Z,15.90
2019-01-16T00:51:37.752Z,15.65
2019-01-16T00:54:27.674Z,16.05
2019-01-16T00:57:00.952Z,16.25
2019-01-16T00:59:50.548Z,15.75
2019-01-16T01:02:29.787Z,15.95
2019-01-16T01:05:17.847Z,16.32
2019-01-16T01:07:51.216Z,18.35
2019-01-16T01:10:27.462Z,16.57
2019-01-16T01:13:15.917Z,17.73
2019-01-16T01:15:55.049Z,19.10
2019-01-16T01:18:32.217Z,18.77
2019-01-16T01:21:03.376Z,19.20
2019-01-16T01:23:53.304Z,20.10
2019-01-16T01:26:35.662Z,19.87
2019-01-16T01:29:25.589Z,20.97
2019-01-16T01:32:07.525Z,20.23
2019-01-16T01:34:46.461Z,23.80
2019-01-16T01:37:19.752Z,20.25
2019-01-16T01:39:55.548Z,21.80
2019-01-16T01:42:28.724Z,23.65
2019-01-16T01:45:18.572Z,24.10
2019-01-16T01:47:54.440Z,25.02
2019-01-16T01:50:33.564Z,24.92
2019-01-16T01:53:24.997Z,27.02
2019-01-16T01:55:58.189Z,26.73
2019-01-16T01:58:31.402Z,26.25
2019-01-16T02:01:04.662Z,25.95
2019-01-16T02:03:46.715Z,27.58
2019-01-16T02:06:22.813Z,27.73
2019-01-16T02:08:58.601Z,28.20
2019-01-16T02:11:37.629Z,31.87
2019-01-16T02:14:28.693Z,32.00
2019-01-16T02:17:04.800Z,33.02
2019-01-16T02:19:37.990Z,35.90
2019-01-16T02:22:14.074Z,36.48
2019-01-16T02:24:47.250Z,36.00
2019-01-16T02:27:20.543Z,35.15
2019-01-16T02:30:08.656Z,34.95
2019-01-16T02:33:17.251Z,33.70
2019-01-16T02:35:59.221Z,32.85
2019-01-16T02:38:32.448Z,30.92
2019-01-16T02:41:08.548Z,31.15
2019-01-16T02:43:44.422Z,29.20
2019-01-16T02:46:17.601Z,28.20
2019-01-16T02:48:56.266Z,27.30
2019-01-16T02:51:37.665Z,27.35
2019-01-16T02:54:17.099Z,26.23
2019-01-16T02:56:58.954Z,28.77
2019-01-16T02:59:41.093Z,25.35
2019-01-16T03:02:17.097Z,26.10
2019-01-16T03:04:53.324Z,25.25
2019-01-16T03:07:32.351Z,27.55
2019-01-16T03:10:08.078Z,25.77
2019-01-16T03:13:02.953Z,24.30
2019-01-16T03:15:48.136Z,25.00
2019-01-16T03:21:16.852Z,25.05
2019-01-16T03:24:02.235Z,25.68
2019-01-16T03:26:44.110Z,24.37
2019-01-16T03:29:18.991Z,23.12
2019-01-16T03:31:52.228Z,23.05
2019-01-16T03:34:25.471Z,23.77
2019-01-16T03:37:15.104Z,19.95
2019-01-16T03:39:48.295Z,20.40
2019-01-16T03:42:27.332Z,20.77
2019-01-16T03:45:06.278Z,20.43
2019-01-16T03:47:54.446Z,19.12
2019-01-16T03:50:42.834Z,19.65
2019-01-16T03:53:18.774Z,18.75
2019-01-16T03:55:58.143Z,18.90
2019-01-16T03:58:43.430Z,18.00
2019-01-16T04:01:31.749Z,18.55
2019-01-16T04:04:13.647Z,17.70
2019-01-16T04:07:02.028Z,17.85
2019-01-16T04:09:37.830Z,16.55
2019-01-16T04:12:22.811Z,16.57
2019-01-16T04:15:10.881Z,16.25
2019-01-16T04:17:46.681Z,16.73
2019-01-16T04:20:22.510Z,17.60
2019-01-16T04:23:12.107Z,16.97
2019-01-16T04:26:01.833Z,15.00
2019-01-16T04:28:37.657Z,16.20
2019-01-16T04:31:27.539Z,15.45
2019-01-16T04:34:17.632Z,15.48
2019-01-16T04:37:00.056Z,14.70
2019-01-16T04:39:48.423Z,14.65
2019-01-16T04:42:24.238Z,15.40
2019-01-16T04:45:13.867Z,14.35
2019-01-16T04:47:52.729Z,13.68
2019-01-16T04:50:28.533Z,13.48
2019-01-16T04:53:04.357Z,14.13
2019-01-16T04:55:46.229Z,12.40
2019-01-16T04:58:22.293Z,12.25
2019-01-16T05:01:01.811Z,11.70
2019-01-16T05:03:37.969Z,12.00
2019-01-16T05:06:20.221Z,11.05
2019-01-16T05:09:08.290Z,11.38
2019-01-16T05:11:47.574Z,11.33
2019-01-16T05:14:26.904Z,11.28
2019-01-16T05:17:00.139Z,10.32
2019-01-16T05:19:38.827Z,9.98
2019-01-16T05:22:11.312Z,10.30
2019-01-16T05:24:53.218Z,9.33
2019-01-16T05:27:44.419Z,9.95
2019-01-16T05:30:32.790Z,9.43
2019-01-16T05:33:08.952Z,9.55
2019-01-16T05:35:51.062Z,8.85
2019-01-16T05:38:33.352Z,9.30
2019-01-16T05:41:06.657Z,8.90
2019-01-16T05:43:56.577Z,9.33
2019-01-16T05:46:32.822Z,8.90
2019-01-16T05:49:18.245Z,9.10
2019-01-16T05:51:54.299Z,8.98
2019-01-16T05:54:42.604Z,8.83
2019-01-16T05:57:18.931Z,9.15
2019-01-16T05:59:55.198Z,9.30
2019-01-16T06:02:44.986Z,9.53
2019-01-16T06:05:33.444Z,9.28
2019-01-16T06:08:18.830Z,9.13
2019-01-16T06:11:00.755Z,8.60
2019-01-16T06:13:43.051Z,7.50
2019-01-16T06:16:19.369Z,8.30
2019-01-16T06:18:52.560Z,8.80
2019-01-16T06:21:25.835Z,8.25
2019-01-16T06:24:23.571Z,7.40
2019-01-16T06:26:59.575Z,8.03
2019-01-16T06:29:38.925Z,7.10
2019-01-16T06:32:21.112Z,7.45
2019-01-16T06:34:56.903Z,7.10
2019-01-16T06:37:30.308Z,7.10
2019-01-16T06:40:06.491Z,7.22
2019-01-16T06:42:56.103Z,6.60
2019-01-16T06:45:41.257Z,6.75
2019-01-16T06:48:14.483Z,6.80
2019-01-16T06:50:47.676Z,6.50
2019-01-16T06:53:20.903Z,6.72
2019-01-16T06:56:09.024Z,7.55
2019-01-16T06:59:17.505Z,6.87
2019-01-16T07:02:07.218Z,5.75
2019-01-16T07:04:40.393Z,5.42
2019-01-16T07:07:16.719Z,6.22
2019-01-16T07:10:06.321Z,5.37
2019-01-16T07:12:45.222Z,5.35
2019-01-16T07:15:30.449Z,5.42
2019-01-16T07:18:18.749Z,5.40
2019-01-16T07:20:57.993Z,5.00
2019-01-16T07:23:37.076Z,4.55
2019-01-16T07:26:10.281Z,4.12
2019-01-16T07:28:46.102Z,4.37
2019-01-16T07:31:25.530Z,4.83
2019-01-16T07:34:13.738Z,4.35
2019-01-16T07:37:05.077Z,4.03
2019-01-16T07:39:43.965Z,4.08
2019-01-16T07:42:22.929Z,3.98
2019-01-16T07:44:56.169Z,3.47
2019-01-16T07:47:45.767Z,3.70
2019-01-16T07:50:19.018Z,3.52
2019-01-16T07:52:52.220Z,4.20
2019-01-16T07:55:25.439Z,3.35
2019-01-16T07:57:58.636Z,3.70
2019-01-16T08:03:23.470Z,3.47
2019-01-16T08:05:59.347Z,3.47
2019-01-16T08:08:32.613Z,3.27
2019-01-16T08:11:14.963Z,3.98
2019-01-16T08:14:04.592Z,3.62
2019-01-16T08:16:37.973Z,3.42
2019-01-16T08:19:14.222Z,3.40
2019-01-16T08:21:47.447Z,3.90
2019-01-16T08:24:38.522Z,3.50
2019-01-16T08:27:11.817Z,4.00
2019-01-16T08:29:47.628Z,3.75
2019-01-16T08:32:23.468Z,4.08
2019-01-16T08:35:05.760Z,4.00
2019-01-16T08:37:55.738Z,3.70
2019-01-16T08:40:28.953Z,4.15
2019-01-16T08:43:07.885Z,4.60
2019-01-16T08:45:50.126Z,4.10
2019-01-16T08:48:28.982Z,4.33
2019-01-16T08:51:10.816Z,4.42
2019-01-16T08:53:46.851Z,4.87
2019-01-16T08:56:25.714Z,4.55
2019-01-16T08:59:15.584Z,5.45
2019-01-16T09:02:07.350Z,5.53
2019-01-16T09:04:46.844Z,5.65
2019-01-16T09:07:26.117Z,5.58
2019-01-16T09:10:15.921Z,5.55
2019-01-16T09:13:07.395Z,6.65
2019-01-16T09:15:52.511Z,6.70
2019-01-16T09:18:25.759Z,7.25
2019-01-16T09:21:10.340Z,6.75
2019-01-16T09:23:44.132Z,6.78
2019-01-16T09:26:26.449Z,7.22
2019-01-16T09:29:05.394Z,7.15
2019-01-16T09:31:47.493Z,6.95
2019-01-16T09:34:23.673Z,7.53
2019-01-16T09:36:59.896Z,7.55
2019-01-16T09:39:35.940Z,8.53
2019-01-16T09:42:14.785Z,8.65
2019-01-16T09:44:47.980Z,9.10
2019-01-16T09:47:28.738Z,8.88
2019-01-16T09:50:17.223Z,8.58
2019-01-16T09:52:50.419Z,9.28
2019-01-16T09:55:39.995Z,9.10
2019-01-16T09:58:19.017Z,9.90
2019-01-16T10:00:52.237Z,9.98
2019-01-16T10:03:41.979Z,10.63
2019-01-16T10:06:18.096Z,9.10
2019-01-16T10:08:56.947Z,10.23
2019-01-16T10:11:36.052Z,9.35
2019-01-16T10:14:30.774Z,9.58
2019-01-16T10:17:09.618Z,9.60
2019-01-16T10:19:45.684Z,9.68
2019-01-16T10:22:30.760Z,9.83
2019-01-16T10:25:14.188Z,9.30
2019-01-16T10:27:53.498Z,10.70
2019-01-16T10:30:26.680Z,9.68
2019-01-16T10:33:03.094Z,10.40
2019-01-16T10:35:51.126Z,10.05
2019-01-16T10:38:27.275Z,10.10
2019-01-16T10:41:07.461Z,9.70
2019-01-16T10:43:55.929Z,10.23
2019-01-16T10:46:31.685Z,10.80
2019-01-16T10:49:14.084Z,10.80
2019-01-16T10:52:03.962Z,10.28
2019-01-16T10:54:53.541Z,10.63
2019-01-16T10:57:35.805Z,10.20
2019-01-16T11:00:19.289Z,10.35
2019-01-16T11:02:52.494Z,10.10
2019-01-16T11:05:28.599Z,10.45
2019-01-16T11:08:04.399Z,10.63
2019-01-16T11:10:40.254Z,9.48
2019-01-16T11:13:30.183Z,10.93
2019-01-16T11:16:19.992Z,10.75
2019-01-16T11:18:56.023Z,10.43
2019-01-16T11:21:47.445Z,10.55
2019-01-16T11:24:20.761Z,10.70
2019-01-16T11:27:00.019Z,10.00
2019-01-16T11:29:45.494Z,10.53
2019-01-16T11:32:18.702Z,10.65
2019-01-16T11:34:54.803Z,10.65
2019-01-16T11:37:30.842Z,10.32
2019-01-16T11:40:14.629Z,11.40
2019-01-16T11:42:47.842Z,11.55
2019-01-16T11:45:23.853Z,11.22
2019-01-16T11:48:08.901Z,11.10
2019-01-16T11:50:42.130Z,11.43
2019-01-16T11:53:27.435Z,11.18
2019-01-16T11:56:09.738Z,10.95
2019-01-16T11:58:42.940Z,11.55
2019-01-16T12:01:16.235Z,10.25
2019-01-16T12:03:49.446Z,11.20
2019-01-16T12:06:28.293Z,11.38
2019-01-16T12:09:19.614Z,10.55
2019-01-16T12:11:52.880Z,10.35
2019-01-16T12:14:32.021Z,9.95
2019-01-16T12:17:07.845Z,11.57
2019-01-16T12:19:55.880Z,11.60
2019-01-16T12:22:32.076Z,11.65
2019-01-16T12:25:25.100Z,11.45
2019-01-16T12:28:04.294Z,11.95
2019-01-16T12:30:37.515Z,11.18
2019-01-16T12:33:13.693Z,11.18
2019-01-16T12:35:52.516Z,11.68
2019-01-16T12:38:30.168Z,11.60
2019-01-16T12:41:06.503Z,11.95
2019-01-16T12:43:45.561Z,11.88
2019-01-16T12:46:24.486Z,10.70
2019-01-16T12:48:57.706Z,10.93
2019-01-16T12:51:33.857Z,10.35
2019-01-16T12:54:22.215Z,9.83
2019-01-16T12:56:55.380Z,9.93
2019-01-16T12:59:34.247Z,9.63
2019-01-16T13:02:16.439Z,9.10
2019-01-16T13:04:49.700Z,9.08
2019-01-16T13:07:28.525Z,9.20
2019-01-16T13:10:04.896Z,9.53
2019-01-16T13:12:53.165Z,9.83
2019-01-16T13:15:35.476Z,10.05
2019-01-16T13:18:11.703Z,9.05
2019-01-16T13:20:53.834Z,8.68
2019-01-16T13:23:39.412Z,9.83
2019-01-16T13:26:24.559Z,9.50
2019-01-16T13:28:57.807Z,9.28
2019-01-16T13:31:46.220Z,10.28
2019-01-16T13:34:34.360Z,9.45
2019-01-16T13:37:19.459Z,9.65
2019-01-16T13:40:09.512Z,8.85
2019-01-16T13:43:00.768Z,9.20
2019-01-16T13:45:42.679Z,9.53
2019-01-16T13:48:32.613Z,8.98
2019-01-16T13:51:05.804Z,8.43
2019-01-16T13:53:44.959Z,8.70
2019-01-16T13:56:21.007Z,8.90
2019-01-16T13:58:54.236Z,8.48
2019-01-16T14:01:36.324Z,8.63
2019-01-16T14:04:13.611Z,8.80
2019-01-16T14:06:55.933Z,8.25
2019-01-16T14:09:44.288Z,8.40
2019-01-16T14:12:20.262Z,8.38
2019-01-16T14:15:05.604Z,8.53
2019-01-16T14:17:47.812Z,7.95
2019-01-16T14:20:24.074Z,8.03
2019-01-16T14:23:03.046Z,8.38
2019-01-16T14:25:52.863Z,8.03
2019-01-16T14:28:26.218Z,9.95
2019-01-16T14:31:15.860Z,9.55
2019-01-16T14:34:07.163Z,8.75
2019-01-16T14:37:01.291Z,7.67
2019-01-16T14:39:37.110Z,8.18
2019-01-16T14:42:28.549Z,8.00
2019-01-16T14:45:01.754Z,7.37
2019-01-16T14:47:34.940Z,8.38
2019-01-16T14:50:13.778Z,7.15
2019-01-16T14:52:58.835Z,7.15
2019-01-16T14:55:32.048Z,7.30
2019-01-16T14:58:14.298Z,6.92
2019-01-16T15:00:47.655Z,6.55
2019-01-16T15:03:29.968Z,6.62
2019-01-16T15:06:15.210Z,6.20
2019-01-16T15:08:51.548Z,6.75
2019-01-16T15:11:27.970Z,6.30
2019-01-16T15:14:17.701Z,6.30
2019-01-16T15:16:50.910Z,7.40
2019-01-16T15:19:24.159Z,7.00
2019-01-16T15:22:09.276Z,7.17
2019-01-16T15:24:51.344Z,7.00
2019-01-16T15:27:39.458Z,7.47
2019-01-16T15:30:24.295Z,8.55
2019-01-16T15:33:13.818Z,7.92
2019-01-16T15:36:04.956Z,7.62
2019-01-16T15:38:38.171Z,7.80
2019-01-16T15:41:27.015Z,7.67
2019-01-16T15:44:15.340Z,10.65
2019-01-16T15:46:57.941Z,7.65
2019-01-16T15:49:43.044Z,8.43
2019-01-16T15:52:16.669Z,11.75
2019-01-16T15:54:59.090Z,23.80
2019-01-16T15:57:41.227Z,16.12
2019-01-16T16:00:31.482Z,16.97
2019-01-16T16:03:21.269Z,19.75
2019-01-16T16:06:10.902Z,12.07
2019-01-16T16:09:02.452Z,23.60
2019-01-16T16:11:35.737Z,17.10
2019-01-16T16:14:18.100Z,15.78
2019-01-16T16:16:51.357Z,11.55
2019-01-16T16:19:42.711Z,12.45
2019-01-16T16:22:28.078Z,12.47
2019-01-16T16:25:01.548Z,12.25
2019-01-16T16:27:37.583Z,13.05
2019-01-16T16:30:30.363Z,13.58
2019-01-16T16:33:09.618Z,13.03
2019-01-16T16:35:45.682Z,12.65
2019-01-16T16:38:21.777Z,14.30
2019-01-16T16:41:13.064Z,12.85
2019-01-16T16:43:46.240Z,13.20
2019-01-16T16:46:19.584Z,13.13
2019-01-16T16:48:53.055Z,14.45
2019-01-16T16:51:43.009Z,15.28
2019-01-16T16:57:41.598Z,13.40
2019-01-16T17:00:14.828Z,13.58
2019-01-16T17:02:48.130Z,13.32
2019-01-16T17:05:30.075Z,13.20
2019-01-16T17:08:15.271Z,13.13
2019-01-16T17:10:51.167Z,13.18
2019-01-16T17:13:24.536Z,13.48
2019-01-16T17:16:00.360Z,14.30
2019-01-16T17:18:39.270Z,13.40
2019-01-16T17:21:08.804Z,13.50
2019-01-16T17:23:58.749Z,13.58
2019-01-16T17:26:31.994Z,13.10
2019-01-16T17:29:26.661Z,13.60
2019-01-16T17:32:18.559Z,13.78
2019-01-16T17:34:51.760Z,13.58
2019-01-16T17:37:30.857Z,14.25
2019-01-16T17:40:12.101Z,17.37
2019-01-16T17:42:45.606Z,18.70
2019-01-16T17:45:35.276Z,16.67
2019-01-16T17:48:10.034Z,17.15
2019-01-16T17:50:52.309Z,15.70
2019-01-16T17:53:25.541Z,16.25
2019-01-16T17:56:01.743Z,17.30
2019-01-16T17:58:51.759Z,14.70
2019-01-16T18:01:24.973Z,14.35
2019-01-16T18:03:58.270Z,15.03
2019-01-16T18:06:34.297Z,15.50
2019-01-16T18:09:11.379Z,16.67
2019-01-16T18:12:00.945Z,16.30
2019-01-16T18:14:36.770Z,17.12
2019-01-16T18:17:12.586Z,27.55
2019-01-16T18:20:02.207Z,28.50
2019-01-16T18:22:38.081Z,30.97
2019-01-16T18:25:11.411Z,24.55
2019-01-16T18:27:44.692Z,17.82
2019-01-16T18:30:23.677Z,18.37
2019-01-16T18:32:56.949Z,15.90
2019-01-16T18:35:35.895Z,17.77
2019-01-16T18:38:24.224Z,15.05
2019-01-16T18:40:57.467Z,18.85
2019-01-16T18:43:30.662Z,17.95
2019-01-16T18:46:04.156Z,17.60
2019-01-16T18:48:43.480Z,15.75
2019-01-16T18:51:25.593Z,17.10
2019-01-16T18:53:59.033Z,14.63
2019-01-16T18:56:37.950Z,15.40
2019-01-16T18:59:11.245Z,14.33
2019-01-16T19:01:53.576Z,14.07
2019-01-16T19:04:26.792Z,13.28
2019-01-16T19:07:03.175Z,13.68
2019-01-16T19:09:52.844Z,14.40
2019-01-16T19:12:38.017Z,13.93
2019-01-16T19:15:14.688Z,14.40
2019-01-16T19:17:50.819Z,15.50
2019-01-16T19:20:24.049Z,20.45
2019-01-16T19:22:58.165Z,28.65
2019-01-16T19:25:40.349Z,18.90
2019-01-16T19:28:19.696Z,17.50
2019-01-16T19:30:53.038Z,21.48
2019-01-16T19:33:29.135Z,17.25
2019-01-16T19:36:14.349Z,18.12
2019-01-16T19:38:50.707Z,25.72
2019-01-16T19:41:29.949Z,23.38
2019-01-16T19:44:06.227Z,25.43
2019-01-16T19:46:45.605Z,21.85
2019-01-16T19:49:21.713Z,21.25
2019-01-16T19:52:06.676Z,18.75
2019-01-16T19:54:46.125Z,20.55
2019-01-16T19:57:25.487Z,17.57
2019-01-16T20:00:14.235Z,18.92
2019-01-16T20:02:50.117Z,17.40
2019-01-16T20:05:41.007Z,20.60
2019-01-16T20:08:28.950Z,18.82
2019-01-16T20:11:02.149Z,18.57
2019-01-16T20:13:52.255Z,19.10
2019-01-16T20:16:34.472Z,19.45
2019-01-16T20:19:13.503Z,20.20
2019-01-16T20:21:46.763Z,23.45
2019-01-16T20:24:22.837Z,21.65
2019-01-16T20:26:56.239Z,21.27
2019-01-16T20:29:29.478Z,27.13
2019-01-16T20:32:19.421Z,22.35
2019-01-16T20:34:55.315Z,18.98
2019-01-16T20:37:28.535Z,21.12
2019-01-16T20:40:01.742Z,20.48
2019-01-16T20:42:43.952Z,20.17
2019-01-16T20:45:25.959Z,17.52
2019-01-16T20:48:15.567Z,17.25
2019-01-16T20:50:54.465Z,16.52
2019-01-16T20:53:33.562Z,18.02
2019-01-16T20:56:15.827Z,18.23
2019-01-16T20:58:55.273Z,19.00
2019-01-16T21:01:37.445Z,20.50
2019-01-16T21:04:22.711Z,17.57
2019-01-16T21:07:01.583Z,19.95
2019-01-16T21:09:34.944Z,19.35
2019-01-16T21:12:17.161Z,20.05
2019-01-16T21:14:50.554Z,18.62
2019-01-16T21:17:23.814Z,18.07
2019-01-16T21:19:59.702Z,18.52
2019-01-16T21:22:49.642Z,18.20
2019-01-16T21:25:29.211Z,18.30
2019-01-16T21:28:02.518Z,18.07
2019-01-16T21:30:41.559Z,16.77
2019-01-16T21:33:31.394Z,17.67
2019-01-16T21:36:05.656Z,17.92
2019-01-16T21:38:55.693Z,17.20
2019-01-16T21:41:34.913Z,16.80
2019-01-16T21:44:08.218Z,18.07
2019-01-16T21:46:50.249Z,17.80
2019-01-16T21:49:35.696Z,19.10
2019-01-16T21:55:18.832Z,27.95
2019-01-16T21:57:58.617Z,36.25
2019-01-16T22:00:31.813Z,36.10
2019-01-16T22:03:21.672Z,30.40
2019-01-16T22:06:11.399Z,37.28
2019-01-16T22:08:44.710Z,27.30
2019-01-16T22:11:17.913Z,26.77
2019-01-16T22:14:06.297Z,36.17
2019-01-16T22:16:52.050Z,27.07
2019-01-16T22:19:28.434Z,28.57
2019-01-16T22:22:13.595Z,25.23
2019-01-16T22:24:46.992Z,25.62
2019-01-16T22:27:22.936Z,27.48
2019-01-16T22:30:02.222Z,26.57
2019-01-16T22:32:41.672Z,26.25
2019-01-16T22:35:20.556Z,28.07
2019-01-16T22:38:07.692Z,28.90
2019-01-16T22:40:41.314Z,29.12
2019-01-16T22:43:17.654Z,28.40
2019-01-16T22:46:00.128Z,31.15
2019-01-16T22:48:33.405Z,32.42
2019-01-16T22:51:21.855Z,49.18
2019-01-16T22:54:12.322Z,47.08
2019-01-16T22:56:57.525Z,32.65
2019-01-16T22:59:36.651Z,35.65
2019-01-16T23:02:26.444Z,32.85
2019-01-16T23:05:27.336Z,23.73
2019-01-16T23:08:00.794Z,23.73
2019-01-16T23:10:34.011Z,20.05
2019-01-16T23:13:07.421Z,12.30
2019-01-16T23:15:46.176Z,8.60
2019-01-16T23:18:28.585Z,8.80
2019-01-16T23:21:07.618Z,8.40
2019-01-16T23:23:41.035Z,9.05
2019-01-16T23:26:17.209Z,6.90
2019-01-16T23:29:07.078Z,8.00
2019-01-16T23:31:46.106Z,7.33
2019-01-16T23:34:19.308Z,8.90
2019-01-16T23:37:04.326Z,8.60
2019-01-16T23:39:40.097Z,9.20
2019-01-16T23:42:13.420Z,9.05
2019-01-16T23:44:46.610Z,8.43
2019-01-16T23:47:36.599Z,8.80
2019-01-16T23:50:27.229Z,10.23
2019-01-16T23:53:06.159Z,9.40
2019-01-16T23:55:39.526Z,9.18
2019-01-16T23:58:15.448Z,7.85
